sensor_id;sensor_type;location;lat;lon;timestamp;temperature;humidity
5466;DHT22;2755;50.728;7.108;2023-03-09T00:01:30;5.90;99.90
5466;DHT22;2755;50.728;7.108;2023-03-09T00:03:57;5.70;99.90
5466;DHT22;2755;50.728;7.108;2023-03-09T00:08:49;6.00;99.90
5466;DHT22;2755;50.728;7.108;2023-03-09T00:11:16;6.10;99.90
5466;DHT22;2755;50.728;7.108;2023-03-09T00:13:43;6.10;99.90
5466;DHT22;2755;50.728;7.108;2023-03-09T00:18:40;5.90;99.90
5466;DHT22;2755;50.728;7.108;2023-03-09T00:21:06;6.30;99.90
5466;DHT22;2755;50.728;7.108;2023-03-09T00:23:33;6.20;99.90
5466;DHT22;2755;50.728;7.108;2023-03-09T00:26:05;5.90;99.90
5466;DHT22;2755;50.728;7.108;2023-03-09T00:28:32;6.30;99.90
5466;DHT22;2755;50.728;7.108;2023-03-09T00:31:02;5.70;99.90
5466;DHT22;2755;50.728;7.108;2023-03-09T00:33:28;5.90;99.90
5466;DHT22;2755;50.728;7.108;2023-03-09T00:38:20;6.30;99.90
5466;DHT22;2755;50.728;7.108;2023-03-09T00:43:11;6.90;99.90
5466;DHT22;2755;50.728;7.108;2023-03-09T00:45:38;6.20;99.90
5466;DHT22;2755;50.728;7.108;2023-03-09T00:48:04;6.40;99.90
5466;DHT22;2755;50.728;7.108;2023-03-09T00:50:29;6.20;99.90
5466;DHT22;2755;50.728;7.108;2023-03-09T00:52:55;6.10;99.90
5466;DHT22;2755;50.728;7.108;2023-03-09T00:55:21;6.10;99.90
5466;DHT22;2755;50.728;7.108;2023-03-09T00:57:47;5.60;99.90
5466;DHT22;2755;50.728;7.108;2023-03-09T01:00:13;5.80;99.90
5466;DHT22;2755;50.728;7.108;2023-03-09T01:02:38;6.20;99.90
5466;DHT22;2755;50.728;7.108;2023-03-09T01:05:04;6.00;99.90
5466;DHT22;2755;50.728;7.108;2023-03-09T01:07:30;5.90;99.90
5466;DHT22;2755;50.728;7.108;2023-03-09T01:09:58;6.10;99.90
5466;DHT22;2755;50.728;7.108;2023-03-09T01:12:24;6.10;99.90
5466;DHT22;2755;50.728;7.108;2023-03-09T01:14:53;6.00;99.90
5466;DHT22;2755;50.728;7.108;2023-03-09T01:17:19;6.00;99.90
5466;DHT22;2755;50.728;7.108;2023-03-09T01:19:45;6.50;99.90
5466;DHT22;2755;50.728;7.108;2023-03-09T01:22:11;6.40;99.90
5466;DHT22;2755;50.728;7.108;2023-03-09T01:24:36;6.60;99.90
5466;DHT22;2755;50.728;7.108;2023-03-09T01:27:02;6.20;99.90
5466;DHT22;2755;50.728;7.108;2023-03-09T01:34:20;6.10;99.90
5466;DHT22;2755;50.728;7.108;2023-03-09T01:36:46;6.70;99.90
5466;DHT22;2755;50.728;7.108;2023-03-09T01:41:38;6.40;99.90
5466;DHT22;2755;50.728;7.108;2023-03-09T01:46:51;6.10;99.90
5466;DHT22;2755;50.728;7.108;2023-03-09T01:49:38;6.10;99.90
5466;DHT22;2755;50.728;7.108;2023-03-09T01:52:18;6.30;99.90
5466;DHT22;2755;50.728;7.108;2023-03-09T01:57:25;5.90;99.90
5466;DHT22;2755;50.728;7.108;2023-03-09T01:59:54;6.10;99.90
5466;DHT22;2755;50.728;7.108;2023-03-09T02:02:24;6.10;99.90
5466;DHT22;2755;50.728;7.108;2023-03-09T02:04:53;6.20;99.90
5466;DHT22;2755;50.728;7.108;2023-03-09T02:07:22;5.90;99.90
5466;DHT22;2755;50.728;7.108;2023-03-09T02:09:52;6.10;99.90
5466;DHT22;2755;50.728;7.108;2023-03-09T02:12:21;6.10;99.90
5466;DHT22;2755;50.728;7.108;2023-03-09T02:17:14;6.10;99.90
5466;DHT22;2755;50.728;7.108;2023-03-09T02:22:06;6.10;99.90
5466;DHT22;2755;50.728;7.108;2023-03-09T02:25:19;6.00;99.90
5466;DHT22;2755;50.728;7.108;2023-03-09T02:27:26;6.10;99.90
5466;DHT22;2755;50.728;7.108;2023-03-09T02:29:53;6.20;99.90
5466;DHT22;2755;50.728;7.108;2023-03-09T02:32:20;6.10;99.90
5466;DHT22;2755;50.728;7.108;2023-03-09T02:34:45;6.40;99.90
5466;DHT22;2755;50.728;7.108;2023-03-09T02:37:36;6.10;99.90
5466;DHT22;2755;50.728;7.108;2023-03-09T02:42:38;6.10;99.90
5466;DHT22;2755;50.728;7.108;2023-03-09T02:45:05;6.30;99.90
5466;DHT22;2755;50.728;7.108;2023-03-09T02:54:49;6.40;99.90
5466;DHT22;2755;50.728;7.108;2023-03-09T02:57:15;6.70;99.90
5466;DHT22;2755;50.728;7.108;2023-03-09T02:59:41;6.40;99.90
5466;DHT22;2755;50.728;7.108;2023-03-09T03:04:32;6.80;99.90
5466;DHT22;2755;50.728;7.108;2023-03-09T03:06:58;6.30;99.90
5466;DHT22;2755;50.728;7.108;2023-03-09T03:09:24;6.20;99.90
5466;DHT22;2755;50.728;7.108;2023-03-09T03:11:51;6.50;99.90
5466;DHT22;2755;50.728;7.108;2023-03-09T03:14:16;6.60;99.90
5466;DHT22;2755;50.728;7.108;2023-03-09T03:21:34;6.50;99.90
5466;DHT22;2755;50.728;7.108;2023-03-09T03:24:00;6.60;99.90
5466;DHT22;2755;50.728;7.108;2023-03-09T03:26:25;6.80;99.90
5466;DHT22;2755;50.728;7.108;2023-03-09T03:28:51;6.70;99.90
5466;DHT22;2755;50.728;7.108;2023-03-09T03:33:42;6.60;99.90
5466;DHT22;2755;50.728;7.108;2023-03-09T03:36:08;6.60;99.90
5466;DHT22;2755;50.728;7.108;2023-03-09T03:38:34;6.50;99.90
5466;DHT22;2755;50.728;7.108;2023-03-09T03:40:59;6.80;99.90
5466;DHT22;2755;50.728;7.108;2023-03-09T03:48:17;6.50;99.90
5466;DHT22;2755;50.728;7.108;2023-03-09T03:53:09;6.40;99.90
5466;DHT22;2755;50.728;7.108;2023-03-09T03:55:35;5.40;99.90
5466;DHT22;2755;50.728;7.108;2023-03-09T04:00:26;6.60;99.90
5466;DHT22;2755;50.728;7.108;2023-03-09T04:02:52;9.30;99.90
5466;DHT22;2755;50.728;7.108;2023-03-09T04:05:18;6.70;99.90
5466;DHT22;2755;50.728;7.108;2023-03-09T04:07:44;6.40;99.90
5466;DHT22;2755;50.728;7.108;2023-03-09T04:10:09;6.40;99.90
5466;DHT22;2755;50.728;7.108;2023-03-09T04:15:01;5.90;99.90
5466;DHT22;2755;50.728;7.108;2023-03-09T04:19:53;6.60;99.90
5466;DHT22;2755;50.728;7.108;2023-03-09T04:22:19;6.10;99.90
5466;DHT22;2755;50.728;7.108;2023-03-09T04:24:48;6.20;99.90
5466;DHT22;2755;50.728;7.108;2023-03-09T04:27:14;5.90;99.90
5466;DHT22;2755;50.728;7.108;2023-03-09T04:29:39;6.20;99.90
5466;DHT22;2755;50.728;7.108;2023-03-09T04:32:05;6.00;99.90
5466;DHT22;2755;50.728;7.108;2023-03-09T04:41:49;6.80;99.90
5466;DHT22;2755;50.728;7.108;2023-03-09T04:46:41;5.90;99.90
5466;DHT22;2755;50.728;7.108;2023-03-09T04:51:32;5.60;99.90
5466;DHT22;2755;50.728;7.108;2023-03-09T04:53:58;6.10;99.90
5466;DHT22;2755;50.728;7.108;2023-03-09T04:56:24;5.80;99.90
5466;DHT22;2755;50.728;7.108;2023-03-09T04:58:49;6.50;99.90
5466;DHT22;2755;50.728;7.108;2023-03-09T05:01:15;5.50;99.90
5466;DHT22;2755;50.728;7.108;2023-03-09T05:06:07;5.70;99.90
5466;DHT22;2755;50.728;7.108;2023-03-09T05:08:33;5.60;99.90
5466;DHT22;2755;50.728;7.108;2023-03-09T05:18:16;6.00;99.90
5466;DHT22;2755;50.728;7.108;2023-03-09T05:20:42;6.00;99.90
5466;DHT22;2755;50.728;7.108;2023-03-09T05:23:07;5.90;99.90
5466;DHT22;2755;50.728;7.108;2023-03-09T05:25:33;5.60;99.90
5466;DHT22;2755;50.728;7.108;2023-03-09T05:27:58;5.70;99.90
5466;DHT22;2755;50.728;7.108;2023-03-09T05:30:24;5.60;99.90
5466;DHT22;2755;50.728;7.108;2023-03-09T05:32:50;5.60;99.90
5466;DHT22;2755;50.728;7.108;2023-03-09T05:35:19;5.60;99.90
5466;DHT22;2755;50.728;7.108;2023-03-09T05:37:45;5.60;99.90
5466;DHT22;2755;50.728;7.108;2023-03-09T05:40:13;5.40;99.90
5466;DHT22;2755;50.728;7.108;2023-03-09T05:42:39;5.40;99.90
5466;DHT22;2755;50.728;7.108;2023-03-09T05:45:05;5.40;99.90
5466;DHT22;2755;50.728;7.108;2023-03-09T05:47:32;5.40;99.90
5466;DHT22;2755;50.728;7.108;2023-03-09T05:54:49;5.60;99.90
5466;DHT22;2755;50.728;7.108;2023-03-09T05:57:15;5.60;99.90
5466;DHT22;2755;50.728;7.108;2023-03-09T05:59:41;5.40;99.90
5466;DHT22;2755;50.728;7.108;2023-03-09T06:06:59;5.80;99.90
5466;DHT22;2755;50.728;7.108;2023-03-09T06:09:25;4.70;99.90
5466;DHT22;2755;50.728;7.108;2023-03-09T06:11:51;5.30;99.90
5466;DHT22;2755;50.728;7.108;2023-03-09T06:14:17;5.20;99.90
5466;DHT22;2755;50.728;7.108;2023-03-09T06:16:43;5.50;99.90
5466;DHT22;2755;50.728;7.108;2023-03-09T06:19:08;5.40;99.90
5466;DHT22;2755;50.728;7.108;2023-03-09T06:21:34;4.90;99.90
5466;DHT22;2755;50.728;7.108;2023-03-09T06:24:00;5.30;99.90
5466;DHT22;2755;50.728;7.108;2023-03-09T06:26:26;5.50;99.90
5466;DHT22;2755;50.728;7.108;2023-03-09T06:28:52;5.20;99.90
5466;DHT22;2755;50.728;7.108;2023-03-09T06:31:18;5.10;99.90
5466;DHT22;2755;50.728;7.108;2023-03-09T06:33:45;5.30;99.90
5466;DHT22;2755;50.728;7.108;2023-03-09T06:36:13;5.30;99.90
5466;DHT22;2755;50.728;7.108;2023-03-09T06:41:06;5.20;99.90
5466;DHT22;2755;50.728;7.108;2023-03-09T06:43:31;5.30;99.90
5466;DHT22;2755;50.728;7.108;2023-03-09T06:45:57;5.10;99.90
5466;DHT22;2755;50.728;7.108;2023-03-09T06:48:23;5.00;99.90
5466;DHT22;2755;50.728;7.108;2023-03-09T06:50:48;5.20;99.90
5466;DHT22;2755;50.728;7.108;2023-03-09T06:53:14;5.40;99.90
5466;DHT22;2755;50.728;7.108;2023-03-09T06:55:40;5.00;99.90
5466;DHT22;2755;50.728;7.108;2023-03-09T07:00:32;5.10;99.90
5466;DHT22;2755;50.728;7.108;2023-03-09T07:03:03;4.70;99.90
5466;DHT22;2755;50.728;7.108;2023-03-09T07:05:29;5.60;99.90
5466;DHT22;2755;50.728;7.108;2023-03-09T07:07:54;5.20;99.90
5466;DHT22;2755;50.728;7.108;2023-03-09T07:10:20;3.90;99.90
5466;DHT22;2755;50.728;7.108;2023-03-09T07:12:47;5.30;99.90
5466;DHT22;2755;50.728;7.108;2023-03-09T07:17:40;5.30;99.90
5466;DHT22;2755;50.728;7.108;2023-03-09T07:22:32;5.30;99.90
5466;DHT22;2755;50.728;7.108;2023-03-09T07:24:57;5.60;99.90
5466;DHT22;2755;50.728;7.108;2023-03-09T07:27:23;5.30;99.90
5466;DHT22;2755;50.728;7.108;2023-03-09T07:29:49;4.80;99.90
5466;DHT22;2755;50.728;7.108;2023-03-09T07:32:14;4.80;99.90
5466;DHT22;2755;50.728;7.108;2023-03-09T07:34:40;5.10;99.90
5466;DHT22;2755;50.728;7.108;2023-03-09T07:37:06;4.80;99.90
5466;DHT22;2755;50.728;7.108;2023-03-09T07:39:32;5.00;99.90
5466;DHT22;2755;50.728;7.108;2023-03-09T07:41:57;4.90;99.90
5466;DHT22;2755;50.728;7.108;2023-03-09T07:44:23;5.10;99.90
5466;DHT22;2755;50.728;7.108;2023-03-09T07:46:49;4.90;99.90
5466;DHT22;2755;50.728;7.108;2023-03-09T07:51:40;5.00;99.90
5466;DHT22;2755;50.728;7.108;2023-03-09T07:54:06;4.90;99.90
5466;DHT22;2755;50.728;7.108;2023-03-09T07:56:32;5.00;99.90
5466;DHT22;2755;50.728;7.108;2023-03-09T07:58:58;6.20;99.90
5466;DHT22;2755;50.728;7.108;2023-03-09T08:01:25;5.60;99.90
5466;DHT22;2755;50.728;7.108;2023-03-09T08:03:52;5.20;99.90
5466;DHT22;2755;50.728;7.108;2023-03-09T08:06:18;5.10;99.90
5466;DHT22;2755;50.728;7.108;2023-03-09T08:11:11;5.30;99.90
5466;DHT22;2755;50.728;7.108;2023-03-09T08:16:06;5.20;99.90
5466;DHT22;2755;50.728;7.108;2023-03-09T08:18:32;5.00;99.90
5466;DHT22;2755;50.728;7.108;2023-03-09T08:23:29;5.20;99.90
5466;DHT22;2755;50.728;7.108;2023-03-09T08:25:55;4.60;99.90
5466;DHT22;2755;50.728;7.108;2023-03-09T08:30:48;5.40;99.90
5466;DHT22;2755;50.728;7.108;2023-03-09T08:33:14;3.70;99.90
5466;DHT22;2755;50.728;7.108;2023-03-09T08:38:05;5.60;99.90
5466;DHT22;2755;50.728;7.108;2023-03-09T08:40:31;5.60;99.90
5466;DHT22;2755;50.728;7.108;2023-03-09T08:45:23;5.50;99.90
5466;DHT22;2755;50.728;7.108;2023-03-09T08:47:49;5.60;99.90
5466;DHT22;2755;50.728;7.108;2023-03-09T08:50:15;5.80;99.90
5466;DHT22;2755;50.728;7.108;2023-03-09T08:52:40;5.80;99.90
5466;DHT22;2755;50.728;7.108;2023-03-09T08:55:07;5.90;99.90
5466;DHT22;2755;50.728;7.108;2023-03-09T08:57:34;5.90;99.90
5466;DHT22;2755;50.728;7.108;2023-03-09T08:59:59;6.00;99.90
5466;DHT22;2755;50.728;7.108;2023-03-09T09:02:25;6.10;99.90
5466;DHT22;2755;50.728;7.108;2023-03-09T09:07:18;6.30;99.90
5466;DHT22;2755;50.728;7.108;2023-03-09T09:09:44;6.00;99.90
5466;DHT22;2755;50.728;7.108;2023-03-09T09:12:10;6.20;99.90
5466;DHT22;2755;50.728;7.108;2023-03-09T09:14:36;6.50;99.90
5466;DHT22;2755;50.728;7.108;2023-03-09T09:17:04;5.60;99.90
5466;DHT22;2755;50.728;7.108;2023-03-09T09:21:58;6.20;99.90
5466;DHT22;2755;50.728;7.108;2023-03-09T09:24:25;6.10;99.90
5466;DHT22;2755;50.728;7.108;2023-03-09T09:26:53;6.30;99.90
5466;DHT22;2755;50.728;7.108;2023-03-09T09:29:20;6.30;99.90
5466;DHT22;2755;50.728;7.108;2023-03-09T09:31:45;6.90;99.90
5466;DHT22;2755;50.728;7.108;2023-03-09T09:36:39;6.70;99.90
5466;DHT22;2755;50.728;7.108;2023-03-09T09:42:05;6.80;99.90
5466;DHT22;2755;50.728;7.108;2023-03-09T09:44:41;6.40;99.90
5466;DHT22;2755;50.728;7.108;2023-03-09T09:47:14;6.80;99.90
5466;DHT22;2755;50.728;7.108;2023-03-09T09:49:44;7.10;99.90
5466;DHT22;2755;50.728;7.108;2023-03-09T10:10:22;9.00;99.90
5466;DHT22;2755;50.728;7.108;2023-03-09T10:12:49;7.90;99.90
5466;DHT22;2755;50.728;7.108;2023-03-09T10:15:33;6.40;99.90
5466;DHT22;2755;50.728;7.108;2023-03-09T10:18:08;8.40;99.90
5466;DHT22;2755;50.728;7.108;2023-03-09T10:20:45;8.40;99.90
5466;DHT22;2755;50.728;7.108;2023-03-09T10:23:32;8.30;99.90
5466;DHT22;2755;50.728;7.108;2023-03-09T10:28:42;8.10;99.90
5466;DHT22;2755;50.728;7.108;2023-03-09T10:31:16;7.90;99.90
5466;DHT22;2755;50.728;7.108;2023-03-09T10:33:43;8.20;99.90
5466;DHT22;2755;50.728;7.108;2023-03-09T10:36:30;8.20;99.90
5466;DHT22;2755;50.728;7.108;2023-03-09T10:39:01;8.10;99.90
5466;DHT22;2755;50.728;7.108;2023-03-09T10:41:28;7.90;99.90
5466;DHT22;2755;50.728;7.108;2023-03-09T10:43:56;8.00;99.90
5466;DHT22;2755;50.728;7.108;2023-03-09T10:46:25;8.00;99.90
5466;DHT22;2755;50.728;7.108;2023-03-09T10:51:40;7.40;99.90
5466;DHT22;2755;50.728;7.108;2023-03-09T10:54:25;8.10;99.90
5466;DHT22;2755;50.728;7.108;2023-03-09T10:56:52;8.10;99.90
5466;DHT22;2755;50.728;7.108;2023-03-09T10:59:20;7.60;99.90
5466;DHT22;2755;50.728;7.108;2023-03-09T11:09:32;9.20;99.90
5466;DHT22;2755;50.728;7.108;2023-03-09T11:31:14;11.20;99.90
5466;DHT22;2755;50.728;7.108;2023-03-09T11:33:41;11.70;99.90
5466;DHT22;2755;50.728;7.108;2023-03-09T11:36:11;11.80;99.90
5466;DHT22;2755;50.728;7.108;2023-03-09T11:38:39;11.80;99.90
5466;DHT22;2755;50.728;7.108;2023-03-09T11:41:34;11.90;99.90
5466;DHT22;2755;50.728;7.108;2023-03-09T11:44:07;11.40;99.90
5466;DHT22;2755;50.728;7.108;2023-03-09T11:49:16;11.80;99.90
5466;DHT22;2755;50.728;7.108;2023-03-09T11:51:48;9.70;99.90
5466;DHT22;2755;50.728;7.108;2023-03-09T11:56:52;12.00;99.90
5466;DHT22;2755;50.728;7.108;2023-03-09T12:04:15;11.00;99.90
5466;DHT22;2755;50.728;7.108;2023-03-09T12:06:50;11.90;99.90
5466;DHT22;2755;50.728;7.108;2023-03-09T12:11:55;12.00;99.90
5466;DHT22;2755;50.728;7.108;2023-03-09T12:14:34;11.70;99.90
5466;DHT22;2755;50.728;7.108;2023-03-09T12:17:05;12.00;99.90
5466;DHT22;2755;50.728;7.108;2023-03-09T12:22:05;11.70;99.90
5466;DHT22;2755;50.728;7.108;2023-03-09T12:24:39;11.60;99.90
5466;DHT22;2755;50.728;7.108;2023-03-09T12:27:13;11.50;99.90
5466;DHT22;2755;50.728;7.108;2023-03-09T12:29:41;10.60;99.90
5466;DHT22;2755;50.728;7.108;2023-03-09T12:34:42;11.30;99.90
5466;DHT22;2755;50.728;7.108;2023-03-09T12:42:45;11.90;99.90
5466;DHT22;2755;50.728;7.108;2023-03-09T12:48:01;10.30;99.90
5466;DHT22;2755;50.728;7.108;2023-03-09T12:53:18;10.10;99.90
5466;DHT22;2755;50.728;7.108;2023-03-09T12:55:47;9.70;99.90
5466;DHT22;2755;50.728;7.108;2023-03-09T13:03:23;10.60;99.90
5466;DHT22;2755;50.728;7.108;2023-03-09T13:05:52;10.80;99.90
5466;DHT22;2755;50.728;7.108;2023-03-09T13:08:39;10.80;99.90
5466;DHT22;2755;50.728;7.108;2023-03-09T13:14:09;10.70;99.90
5466;DHT22;2755;50.728;7.108;2023-03-09T13:24:25;10.50;99.90
5466;DHT22;2755;50.728;7.108;2023-03-09T13:26:56;10.60;99.90
5466;DHT22;2755;50.728;7.108;2023-03-09T13:29:25;10.50;99.90
5466;DHT22;2755;50.728;7.108;2023-03-09T13:31:52;10.40;99.90
5466;DHT22;2755;50.728;7.108;2023-03-09T13:36:56;10.60;99.90
5466;DHT22;2755;50.728;7.108;2023-03-09T13:39:24;9.90;99.90
5466;DHT22;2755;50.728;7.108;2023-03-09T13:41:51;9.80;99.90
5466;DHT22;2755;50.728;7.108;2023-03-09T13:44:20;10.30;99.90
5466;DHT22;2755;50.728;7.108;2023-03-09T13:46:47;10.10;99.90
5466;DHT22;2755;50.728;7.108;2023-03-09T13:51:48;10.70;99.90
5466;DHT22;2755;50.728;7.108;2023-03-09T13:54:46;10.60;99.90
5466;DHT22;2755;50.728;7.108;2023-03-09T14:02:09;11.00;99.90
5466;DHT22;2755;50.728;7.108;2023-03-09T14:08:02;10.80;99.90
5466;DHT22;2755;50.728;7.108;2023-03-09T14:10:33;10.90;99.90
5466;DHT22;2755;50.728;7.108;2023-03-09T14:13:02;10.80;99.90
5466;DHT22;2755;50.728;7.108;2023-03-09T14:15:29;10.90;99.90
5466;DHT22;2755;50.728;7.108;2023-03-09T14:17:55;11.30;99.90
5466;DHT22;2755;50.728;7.108;2023-03-09T14:20:31;11.00;99.90
5466;DHT22;2755;50.728;7.108;2023-03-09T14:27:50;12.00;99.90
5466;DHT22;2755;50.728;7.108;2023-03-09T14:30:34;11.60;99.90
5466;DHT22;2755;50.728;7.108;2023-03-09T14:38:21;11.60;99.90
5466;DHT22;2755;50.728;7.108;2023-03-09T14:40:48;14.70;99.90
5466;DHT22;2755;50.728;7.108;2023-03-09T14:46:26;12.00;99.90
5466;DHT22;2755;50.728;7.108;2023-03-09T14:48:53;11.80;99.90
5466;DHT22;2755;50.728;7.108;2023-03-09T14:51:25;11.90;99.90
5466;DHT22;2755;50.728;7.108;2023-03-09T14:53:57;12.10;99.90
5466;DHT22;2755;50.728;7.108;2023-03-09T14:56:24;12.20;99.90
5466;DHT22;2755;50.728;7.108;2023-03-09T14:58:50;12.40;99.90
5466;DHT22;2755;50.728;7.108;2023-03-09T15:01:17;13.20;99.90
5466;DHT22;2755;50.728;7.108;2023-03-09T15:03:44;12.70;99.90
5466;DHT22;2755;50.728;7.108;2023-03-09T15:08:36;13.40;99.90
5466;DHT22;2755;50.728;7.108;2023-03-09T15:11:01;13.00;99.60
5466;DHT22;2755;50.728;7.108;2023-03-09T15:13:29;13.30;99.00
5466;DHT22;2755;50.728;7.108;2023-03-09T15:20:46;13.20;93.50
5466;DHT22;2755;50.728;7.108;2023-03-09T15:25:38;12.60;95.10
5466;DHT22;2755;50.728;7.108;2023-03-09T15:28:04;12.60;95.40
5466;DHT22;2755;50.728;7.108;2023-03-09T15:30:29;12.90;96.00
5466;DHT22;2755;50.728;7.108;2023-03-09T15:32:55;12.80;93.20
5466;DHT22;2755;50.728;7.108;2023-03-09T15:35:20;12.90;92.60
5466;DHT22;2755;50.728;7.108;2023-03-09T15:37:47;13.00;90.40
5466;DHT22;2755;50.728;7.108;2023-03-09T15:40:14;13.00;92.00
5466;DHT22;2755;50.728;7.108;2023-03-09T15:42:41;13.10;93.20
5466;DHT22;2755;50.728;7.108;2023-03-09T15:45:10;12.90;90.90
5466;DHT22;2755;50.728;7.108;2023-03-09T15:47:36;12.30;90.90
5466;DHT22;2755;50.728;7.108;2023-03-09T15:50:06;12.80;90.50
5466;DHT22;2755;50.728;7.108;2023-03-09T15:52:33;12.70;90.30
5466;DHT22;2755;50.728;7.108;2023-03-09T15:54:59;13.00;88.30
5466;DHT22;2755;50.728;7.108;2023-03-09T15:59:50;12.90;90.00
5466;DHT22;2755;50.728;7.108;2023-03-09T16:04:43;12.10;86.30
5466;DHT22;2755;50.728;7.108;2023-03-09T16:09:35;12.80;85.60
5466;DHT22;2755;50.728;7.108;2023-03-09T16:14:26;12.50;84.00
5466;DHT22;2755;50.728;7.108;2023-03-09T16:16:52;13.30;86.40
5466;DHT22;2755;50.728;7.108;2023-03-09T16:21:44;12.50;86.40
5466;DHT22;2755;50.728;7.108;2023-03-09T16:29:02;12.60;86.00
5466;DHT22;2755;50.728;7.108;2023-03-09T16:31:29;13.00;89.40
5466;DHT22;2755;50.728;7.108;2023-03-09T16:33:55;12.60;90.20
5466;DHT22;2755;50.728;7.108;2023-03-09T16:36:21;12.50;90.80
5466;DHT22;2755;50.728;7.108;2023-03-09T16:38:47;13.00;91.10
5466;DHT22;2755;50.728;7.108;2023-03-09T16:41:15;12.40;89.60
5466;DHT22;2755;50.728;7.108;2023-03-09T16:43:41;12.60;90.30
5466;DHT22;2755;50.728;7.108;2023-03-09T16:46:13;12.60;90.50
5466;DHT22;2755;50.728;7.108;2023-03-09T16:48:40;12.40;90.80
5466;DHT22;2755;50.728;7.108;2023-03-09T16:51:05;12.60;90.90
5466;DHT22;2755;50.728;7.108;2023-03-09T16:53:31;12.30;90.70
5466;DHT22;2755;50.728;7.108;2023-03-09T16:55:58;12.30;90.00
5466;DHT22;2755;50.728;7.108;2023-03-09T16:58:24;12.50;92.20
5466;DHT22;2755;50.728;7.108;2023-03-09T17:00:50;11.90;91.10
5466;DHT22;2755;50.728;7.108;2023-03-09T17:05:42;12.20;91.30
5466;DHT22;2755;50.728;7.108;2023-03-09T17:08:09;12.30;91.80
5466;DHT22;2755;50.728;7.108;2023-03-09T17:10:35;12.50;93.10
5466;DHT22;2755;50.728;7.108;2023-03-09T17:13:01;11.90;92.50
5466;DHT22;2755;50.728;7.108;2023-03-09T17:15:26;12.00;93.40
5466;DHT22;2755;50.728;7.108;2023-03-09T17:17:52;12.10;92.80
5466;DHT22;2755;50.728;7.108;2023-03-09T17:20:18;12.10;93.60
5466;DHT22;2755;50.728;7.108;2023-03-09T17:22:43;12.10;94.80
5466;DHT22;2755;50.728;7.108;2023-03-09T17:25:17;11.80;94.10
5466;DHT22;2755;50.728;7.108;2023-03-09T17:30:13;11.70;94.00
5466;DHT22;2755;50.728;7.108;2023-03-09T17:32:39;11.80;95.10
5466;DHT22;2755;50.728;7.108;2023-03-09T17:35:05;11.80;95.20
5466;DHT22;2755;50.728;7.108;2023-03-09T17:37:30;11.80;95.60
5466;DHT22;2755;50.728;7.108;2023-03-09T17:42:22;12.20;96.90
5466;DHT22;2755;50.728;7.108;2023-03-09T17:44:48;11.20;96.10
5466;DHT22;2755;50.728;7.108;2023-03-09T17:47:13;11.80;96.60
5466;DHT22;2755;50.728;7.108;2023-03-09T17:49:39;11.60;97.90
5466;DHT22;2755;50.728;7.108;2023-03-09T17:54:36;11.90;97.60
5466;DHT22;2755;50.728;7.108;2023-03-09T17:57:01;11.70;98.10
5466;DHT22;2755;50.728;7.108;2023-03-09T18:01:54;11.80;98.30
5466;DHT22;2755;50.728;7.108;2023-03-09T18:04:19;12.60;98.70
5466;DHT22;2755;50.728;7.108;2023-03-09T18:09:13;11.40;98.70
5466;DHT22;2755;50.728;7.108;2023-03-09T18:11:39;11.60;97.90
5466;DHT22;2755;50.728;7.108;2023-03-09T18:14:05;11.70;98.50
5466;DHT22;2755;50.728;7.108;2023-03-09T18:16:32;11.70;98.60
5466;DHT22;2755;50.728;7.108;2023-03-09T18:18:58;11.80;98.90
5466;DHT22;2755;50.728;7.108;2023-03-09T18:21:24;11.60;97.90
5466;DHT22;2755;50.728;7.108;2023-03-09T18:23:51;11.70;98.40
5466;DHT22;2755;50.728;7.108;2023-03-09T18:26:20;11.50;98.10
5466;DHT22;2755;50.728;7.108;2023-03-09T18:28:47;11.50;98.50
5466;DHT22;2755;50.728;7.108;2023-03-09T18:31:13;11.40;99.90
5466;DHT22;2755;50.728;7.108;2023-03-09T18:33:39;11.60;99.10
5466;DHT22;2755;50.728;7.108;2023-03-09T18:36:07;11.40;99.90
5466;DHT22;2755;50.728;7.108;2023-03-09T18:41:04;11.40;98.90
5466;DHT22;2755;50.728;7.108;2023-03-09T18:43:30;11.70;99.60
5466;DHT22;2755;50.728;7.108;2023-03-09T18:45:58;11.40;98.70
5466;DHT22;2755;50.728;7.108;2023-03-09T18:48:23;11.30;98.40
5466;DHT22;2755;50.728;7.108;2023-03-09T18:50:56;11.60;98.40
5466;DHT22;2755;50.728;7.108;2023-03-09T18:53:23;11.40;98.80
5466;DHT22;2755;50.728;7.108;2023-03-09T18:56:06;11.60;97.60
5466;DHT22;2755;50.728;7.108;2023-03-09T18:58:34;11.70;98.40
5466;DHT22;2755;50.728;7.108;2023-03-09T19:01:09;11.90;98.60
5466;DHT22;2755;50.728;7.108;2023-03-09T19:03:35;11.50;97.50
5466;DHT22;2755;50.728;7.108;2023-03-09T19:08:29;11.60;97.40
5466;DHT22;2755;50.728;7.108;2023-03-09T19:13:20;11.40;97.00
5466;DHT22;2755;50.728;7.108;2023-03-09T19:15:46;11.80;96.30
5466;DHT22;2755;50.728;7.108;2023-03-09T19:18:15;11.80;96.20
5466;DHT22;2755;50.728;7.108;2023-03-09T19:20:41;11.80;95.60
5466;DHT22;2755;50.728;7.108;2023-03-09T19:23:08;11.70;96.10
5466;DHT22;2755;50.728;7.108;2023-03-09T19:28:00;11.90;96.30
5466;DHT22;2755;50.728;7.108;2023-03-09T19:32:52;11.80;95.70
5466;DHT22;2755;50.728;7.108;2023-03-09T19:37:44;11.60;96.10
5466;DHT22;2755;50.728;7.108;2023-03-09T19:40:12;11.80;98.20
5466;DHT22;2755;50.728;7.108;2023-03-09T19:42:42;11.80;99.00
5466;DHT22;2755;50.728;7.108;2023-03-09T19:45:08;11.60;98.90
5466;DHT22;2755;50.728;7.108;2023-03-09T19:50:03;11.40;99.90
5466;DHT22;2755;50.728;7.108;2023-03-09T19:52:29;11.40;99.90
5466;DHT22;2755;50.728;7.108;2023-03-09T19:54:54;11.70;99.90
5466;DHT22;2755;50.728;7.108;2023-03-09T19:57:20;11.20;99.90
5466;DHT22;2755;50.728;7.108;2023-03-09T19:59:46;11.00;99.90
5466;DHT22;2755;50.728;7.108;2023-03-09T20:07:05;11.60;99.90
5466;DHT22;2755;50.728;7.108;2023-03-09T20:09:31;10.70;99.90
5466;DHT22;2755;50.728;7.108;2023-03-09T20:11:57;11.90;99.90
5466;DHT22;2755;50.728;7.108;2023-03-09T20:14:23;11.40;99.90
5466;DHT22;2755;50.728;7.108;2023-03-09T20:16:50;12.10;99.90
5466;DHT22;2755;50.728;7.108;2023-03-09T20:24:12;11.20;99.90
5466;DHT22;2755;50.728;7.108;2023-03-09T20:26:39;11.80;99.90
5466;DHT22;2755;50.728;7.108;2023-03-09T20:29:08;11.20;99.90
5466;DHT22;2755;50.728;7.108;2023-03-09T20:31:49;11.10;99.90
5466;DHT22;2755;50.728;7.108;2023-03-09T20:34:16;10.90;99.90
5466;DHT22;2755;50.728;7.108;2023-03-09T20:41:35;11.20;99.90
5466;DHT22;2755;50.728;7.108;2023-03-09T20:44:00;11.40;99.90
5466;DHT22;2755;50.728;7.108;2023-03-09T20:46:27;11.30;99.90
5466;DHT22;2755;50.728;7.108;2023-03-09T20:48:58;11.20;99.90
5466;DHT22;2755;50.728;7.108;2023-03-09T20:51:24;10.90;99.90
5466;DHT22;2755;50.728;7.108;2023-03-09T20:53:50;11.40;99.90
5466;DHT22;2755;50.728;7.108;2023-03-09T20:56:19;11.30;99.90
5466;DHT22;2755;50.728;7.108;2023-03-09T20:58:45;10.80;99.90
5466;DHT22;2755;50.728;7.108;2023-03-09T21:01:13;11.50;99.90
5466;DHT22;2755;50.728;7.108;2023-03-09T21:03:39;10.90;99.90
5466;DHT22;2755;50.728;7.108;2023-03-09T21:06:06;11.20;99.90
5466;DHT22;2755;50.728;7.108;2023-03-09T21:10:57;11.40;99.90
5466;DHT22;2755;50.728;7.108;2023-03-09T21:13:26;11.30;99.90
5466;DHT22;2755;50.728;7.108;2023-03-09T21:15:51;11.40;99.90
5466;DHT22;2755;50.728;7.108;2023-03-09T21:18:17;11.30;99.90
5466;DHT22;2755;50.728;7.108;2023-03-09T21:23:08;11.50;99.90
5466;DHT22;2755;50.728;7.108;2023-03-09T21:25:35;11.50;99.90
5466;DHT22;2755;50.728;7.108;2023-03-09T21:30:30;11.60;99.90
5466;DHT22;2755;50.728;7.108;2023-03-09T21:35:22;11.50;99.90
5466;DHT22;2755;50.728;7.108;2023-03-09T21:37:49;11.40;99.90
5466;DHT22;2755;50.728;7.108;2023-03-09T21:40:16;11.30;99.90
5466;DHT22;2755;50.728;7.108;2023-03-09T21:42:44;11.50;99.90
5466;DHT22;2755;50.728;7.108;2023-03-09T21:47:36;11.50;99.90
5466;DHT22;2755;50.728;7.108;2023-03-09T21:50:02;11.50;99.90